KGNV/GNV METAR and TAF weather

Enter ICAO airport designator
Station Type Date Time Source
KGNV METAR 2021/08/02 01:53 UTC NOAA

KGNV 020153Z AUTO 15003KT 10SM FEW065 OVC085 23/22 A3007 RMK AO2 RAB0059E32 SLP178 P0006 T02280217


Station Type Date Time Source
KGNV Decoded METAR 2021/08/02 01:53 UTC NOAA

GAINESVILLE REGIONAL AIRPORT , FL, United States (KGNV) 29-42N 082-17W 45M
Aug 01, 2021 - 09:53 PM EDT / 2021.08.02 0153 UTC
Wind: from the SSE (150 degrees) at 3 MPH (3 KT):0
Visibility: 10 mile(s):0
Sky conditions: overcast
Precipitation last hour: 0.06 inches
Temperature: 73.0 F (22.8 C)
Dew Point: 71.1 F (21.7 C)
Relative Humidity: 93%
Pressure (altimeter): 30.07 in. Hg (1018 hPa)
ob: KGNV 020153Z AUTO 15003KT 10SM FEW065 OVC085 23/22 A3007 RMK AO2 RAB0059E32 SLP178 P0006 T02280217
cycle: 2

Station Type Date Time Source
KGNV TAF 2021/08/02 01:59 UTC NOAA

TAF
AMD KGNV 020059Z 0201/0224 34008KT P6SM VCTS SCT030CB BKN100
TEMPO 0201/0203 VRB15G25KT 4SM TSRA BR BKN030CB OVC080
FM020300 23003KT P6SM SCT080 BKN250
FM021400 25006KT P6SM SCT030 SCT250
TEMPO 0220/0224 4SM TSRA BR OVC030CB

Example: see airport list